Time;durP1;ratioP1;P1;durP2;ratioP2;P2;SDS_P1;SDS_P2;PMS_P1;PMS_P2;Temp;Humidity;BMP_temperature;BMP_pressure;BME280_temperature;BME280_humidity;BME280_pressure;Samples;Min_cycle;Max_cycle;Signal;HPM_P1;HPM_P2
2023/09/24 00:00:26;;;;;;;12.83;3.40;;;13.00;73.90;;;;;;5106945;28;20460;-82
2023/09/24 00:02:57;;;;;;;6.53;2.50;;;13.00;73.80;;;;;;5088331;28;21170;-82
2023/09/24 00:05:25;;;;;;;8.23;3.03;;;13.00;73.90;;;;;;5094215;28;20946;-81
2023/09/24 00:07:54;;;;;;;5.90;2.40;;;13.00;73.90;;;;;;5107574;28;20453;-81
2023/09/24 00:10:24;;;;;;;5.10;1.97;;;13.00;73.80;;;;;;5111873;28;20503;-81
2023/09/24 00:12:53;;;;;;;6.77;2.80;;;12.90;73.80;;;;;;5094056;28;20553;-81
2023/09/24 00:15:25;;;;;;;7.90;2.70;;;12.90;73.60;;;;;;5112532;28;20454;-81
2023/09/24 00:17:53;;;;;;;6.30;2.27;;;12.80;73.50;;;;;;5091044;28;20590;-81
2023/09/24 00:20:30;;;;;;;5.53;2.80;;;12.70;73.40;;;;;;5090010;28;20464;-81
2023/09/24 00:22:58;;;;;;;8.90;3.43;;;12.70;73.50;;;;;;5092292;28;20479;-81
2023/09/24 00:25:27;;;;;;;6.20;2.30;;;12.60;73.60;;;;;;5088978;28;20535;-81
2023/09/24 00:27:55;;;;;;;4.87;2.20;;;12.60;73.70;;;;;;5104477;28;20483;-81
2023/09/24 00:30:24;;;;;;;4.80;2.33;;;12.60;73.70;;;;;;5107749;28;20463;-81
2023/09/24 00:32:53;;;;;;;6.67;2.43;;;12.60;73.70;;;;;;5112332;28;20516;-82
2023/09/24 00:35:22;;;;;;;5.80;2.23;;;12.60;73.70;;;;;;5112086;28;20466;-81
2023/09/24 00:37:52;;;;;;;6.00;2.70;;;12.60;73.70;;;;;;5091213;28;20489;-81
2023/09/24 00:40:20;;;;;;;6.70;2.67;;;12.60;73.70;;;;;;5106196;28;20808;-81
2023/09/24 00:42:49;;;;;;;7.90;2.47;;;12.60;73.60;;;;;;5094369;28;20486;-81
2023/09/24 00:45:17;;;;;;;5.90;2.27;;;12.60;73.60;;;;;;5091864;28;20974;-81
2023/09/24 00:47:48;;;;;;;6.30;2.67;;;12.60;73.50;;;;;;5108507;28;20536;-81
2023/09/24 00:50:16;;;;;;;5.70;2.40;;;12.60;73.50;;;;;;5109313;28;20460;-81
2023/09/24 00:52:46;;;;;;;5.17;2.37;;;12.50;73.50;;;;;;5095147;28;20450;-82
2023/09/24 00:55:18;;;;;;;6.10;2.90;;;12.50;73.40;;;;;;5094036;28;20449;-81
2023/09/24 00:57:48;;;;;;;7.37;2.83;;;12.50;73.50;;;;;;5112177;28;20547;-81
2023/09/24 01:00:17;;;;;;;6.57;2.60;;;12.40;73.60;;;;;;5106113;28;20941;-81
2023/09/24 01:02:50;;;;;;;5.67;2.37;;;12.50;73.60;;;;;;5106990;28;20456;-81
2023/09/24 01:05:19;;;;;;;5.63;2.43;;;12.50;73.60;;;;;;5083914;28;20945;-82
2023/09/24 01:07:47;;;;;;;5.20;2.50;;;12.50;73.60;;;;;;5105718;28;20464;-81
2023/09/24 01:10:17;;;;;;;5.37;2.03;;;12.50;73.60;;;;;;5090164;28;21282;-81
2023/09/24 01:12:54;;;;;;;6.10;2.30;;;12.50;73.70;;;;;;5094082;28;20539;-81
2023/09/24 01:15:24;;;;;;;5.83;2.40;;;12.50;73.60;;;;;;5110965;28;20459;-82
2023/09/24 01:17:53;;;;;;;9.40;2.87;;;12.50;73.60;;;;;;5090806;28;20509;-82
2023/09/24 01:20:22;;;;;;;5.37;2.10;;;12.50;73.50;;;;;;5096021;28;20453;-81
2023/09/24 01:22:59;;;;;;;5.80;2.80;;;12.50;73.40;;;;;;5108867;28;20980;-82
2023/09/24 01:25:27;;;;;;;7.67;2.40;;;12.40;73.30;;;;;;5104755;28;20502;-82
2023/09/24 01:27:55;;;;;;;5.40;2.33;;;12.30;73.50;;;;;;5085836;28;20452;-82
2023/09/24 01:30:24;;;;;;;8.00;2.00;;;12.30;73.40;;;;;;5108303;28;20457;-81
2023/09/24 01:32:52;;;;;;;6.23;2.03;;;12.30;73.40;;;;;;5091661;28;20463;-81
2023/09/24 01:35:26;;;;;;;9.27;2.67;;;12.30;73.30;;;;;;5092113;28;21163;-81
2023/09/24 01:37:57;;;;;;;5.07;2.57;;;12.20;73.30;;;;;;5104204;28;20517;-81
2023/09/24 01:40:32;;;;;;;4.87;2.27;;;12.20;73.30;;;;;;5104917;28;20447;-81
2023/09/24 01:43:02;;;;;;;6.13;2.20;;;12.20;73.40;;;;;;5091786;28;20488;-81
2023/09/24 01:45:33;;;;;;;4.60;2.20;;;12.20;73.30;;;;;;5108753;28;20490;-81
2023/09/24 01:48:03;;;;;;;4.60;2.20;;;12.20;73.30;;;;;;5087255;28;20509;-81
2023/09/24 01:50:33;;;;;;;7.73;2.33;;;12.10;73.20;;;;;;5089981;28;21036;-81
2023/09/24 01:53:05;;;;;;;5.20;2.07;;;12.10;73.20;;;;;;5102203;28;20469;-81
2023/09/24 01:55:36;;;;;;;6.30;2.10;;;12.10;73.20;;;;;;5088368;28;20444;-82
2023/09/24 01:58:04;;;;;;;5.27;2.30;;;12.00;73.20;;;;;;5103474;28;20516;-81
2023/09/24 02:00:32;;;;;;;6.83;2.20;;;12.00;73.20;;;;;;5097346;28;20504;-81
2023/09/24 02:03:06;;;;;;;8.30;2.50;;;12.00;73.20;;;;;;5108991;28;20448;-81
2023/09/24 02:05:34;;;;;;;5.80;2.30;;;11.90;73.10;;;;;;5107364;28;21324;-81
2023/09/24 02:08:08;;;;;;;5.37;2.80;;;11.90;73.10;;;;;;5100992;28;20448;-81
2023/09/24 02:10:40;;;;;;;5.23;2.50;;;11.90;73.10;;;;;;5088726;28;20455;-81
2023/09/24 02:13:08;;;;;;;4.97;2.10;;;11.90;73.10;;;;;;5109037;28;20452;-82
2023/09/24 02:15:38;;;;;;;4.63;2.03;;;11.80;73.20;;;;;;5090206;28;20853;-81
2023/09/24 02:18:06;;;;;;;5.60;2.10;;;11.90;73.20;;;;;;5086512;28;20490;-82
2023/09/24 02:20:35;;;;;;;5.67;2.53;;;11.90;73.30;;;;;;5108905;28;20990;-82
2023/09/24 02:23:05;;;;;;;6.70;2.33;;;11.80;73.30;;;;;;5084967;28;20842;-81
2023/09/24 02:25:35;;;;;;;6.03;2.40;;;11.90;73.30;;;;;;5104228;28;20565;-81
2023/09/24 02:28:03;;;;;;;4.60;2.10;;;11.90;73.30;;;;;;5104680;28;21144;-81
2023/09/24 02:30:32;;;;;;;6.20;2.80;;;11.90;73.40;;;;;;5103043;28;20509;-81
2023/09/24 02:33:02;;;;;;;4.70;2.20;;;11.90;73.30;;;;;;5075587;28;20858;-81
2023/09/24 02:35:31;;;;;;;6.17;2.30;;;11.90;73.20;;;;;;5106952;28;21005;-81
2023/09/24 02:38:00;;;;;;;6.27;2.60;;;11.80;73.30;;;;;;5078786;28;20462;-81
2023/09/24 02:40:30;;;;;;;7.13;2.67;;;11.80;73.40;;;;;;5109646;28;20466;-81
2023/09/24 02:42:59;;;;;;;4.87;2.50;;;11.90;73.40;;;;;;5105596;28;21021;-81
2023/09/24 02:45:29;;;;;;;5.67;2.10;;;11.80;73.30;;;;;;5091146;28;20513;-81
2023/09/24 02:47:58;;;;;;;6.57;2.47;;;11.80;73.30;;;;;;5101912;28;20466;-81
2023/09/24 02:50:28;;;;;;;5.17;2.30;;;11.80;73.30;;;;;;5089144;28;20469;-81
2023/09/24 02:52:58;;;;;;;5.13;2.47;;;11.80;73.30;;;;;;5091327;28;20468;-81
2023/09/24 02:55:30;;;;;;;8.37;2.77;;;11.80;73.30;;;;;;5086582;28;20973;-81
2023/09/24 02:57:59;;;;;;;5.97;2.00;;;11.80;73.30;;;;;;5106607;28;20451;-81
2023/09/24 03:00:35;;;;;;;5.67;2.30;;;11.80;73.30;;;;;;5086504;28;20483;-81
2023/09/24 03:03:05;;;;;;;5.80;2.20;;;11.80;73.10;;;;;;5099226;28;20458;-81
2023/09/24 03:05:35;;;;;;;4.60;2.07;;;11.70;73.10;;;;;;5082269;28;20929;-81
2023/09/24 03:08:05;;;;;;;5.43;2.50;;;11.60;73.10;;;;;;5090437;28;20466;-82
2023/09/24 03:10:36;;;;;;;5.40;2.10;;;11.60;73.10;;;;;;5092428;28;20878;-81
2023/09/24 03:13:11;;;;;;;6.00;2.43;;;11.50;73.00;;;;;;5091287;28;20552;-81
2023/09/24 03:15:39;;;;;;;5.27;1.87;;;11.40;73.00;;;;;;5108695;28;20458;-81
2023/09/24 03:18:07;;;;;;;4.63;2.00;;;11.40;73.10;;;;;;5109344;28;20532;-81
2023/09/24 03:20:35;;;;;;;4.33;2.20;;;11.30;73.20;;;;;;5110658;28;20454;-81
2023/09/24 03:23:08;;;;;;;5.70;2.50;;;11.30;73.20;;;;;;5093832;28;20448;-81
2023/09/24 03:25:40;;;;;;;6.63;2.60;;;11.30;73.30;;;;;;5092906;28;20507;-81
2023/09/24 03:28:08;;;;;;;5.30;2.53;;;11.30;73.30;;;;;;5111944;28;20447;-81
2023/09/24 03:30:37;;;;;;;5.90;2.63;;;11.30;73.20;;;;;;5085821;28;20473;-81
2023/09/24 03:33:06;;;;;;;6.13;2.60;;;11.30;73.30;;;;;;5089555;28;20448;-81
2023/09/24 03:35:34;;;;;;;5.30;2.20;;;11.30;73.30;;;;;;5093869;28;21056;-81
2023/09/24 03:38:02;;;;;;;5.23;2.30;;;11.30;73.30;;;;;;5088065;28;20925;-81
2023/09/24 03:40:31;;;;;;;13.93;2.90;;;11.30;73.30;;;;;;5086308;28;20466;-82
2023/09/24 03:43:01;;;;;;;5.00;2.60;;;11.30;73.30;;;;;;5091347;28;20488;-81
2023/09/24 03:45:29;;;;;;;6.33;2.63;;;11.30;73.30;;;;;;5086230;28;20486;-81
2023/09/24 03:47:58;;;;;;;5.50;2.47;;;11.30;73.20;;;;;;5085673;28;20896;-81
2023/09/24 03:50:26;;;;;;;6.33;2.90;;;11.30;73.20;;;;;;5111258;28;20461;-82
2023/09/24 03:52:56;;;;;;;12.07;2.73;;;11.30;73.30;;;;;;5111923;28;20451;-81
2023/09/24 03:55:25;;;;;;;9.73;3.20;;;11.30;73.30;;;;;;5092546;28;20897;-81
2023/09/24 03:57:53;;;;;;;6.20;3.03;;;11.30;73.40;;;;;;5111830;28;20524;-81
2023/09/24 04:00:22;;;;;;;5.40;2.67;;;11.30;73.30;;;;;;5093928;28;20440;-81
2023/09/24 04:02:55;;;;;;;5.40;2.97;;;11.40;73.30;;;;;;5112201;28;20534;-81
2023/09/24 04:05:24;;;;;;;6.00;2.33;;;11.30;73.20;;;;;;5085836;28;20505;-81
2023/09/24 04:07:55;;;;;;;5.40;2.50;;;11.30;73.30;;;;;;5109514;28;20446;-81
2023/09/24 04:10:27;;;;;;;11.30;2.73;;;11.30;73.20;;;;;;5110728;28;20446;-81
2023/09/24 04:12:57;;;;;;;7.80;2.77;;;11.30;73.10;;;;;;5112622;28;21148;-81
2023/09/24 04:15:28;;;;;;;7.63;2.27;;;11.20;73.00;;;;;;5108484;28;20484;-81
2023/09/24 04:18:00;;;;;;;8.40;2.73;;;11.20;73.00;;;;;;5105167;28;20975;-81
2023/09/24 04:20:32;;;;;;;7.40;2.73;;;11.10;73.00;;;;;;5092175;28;20449;-81
2023/09/24 04:23:01;;;;;;;5.23;2.40;;;11.10;73.10;;;;;;5110589;28;20459;-81
2023/09/24 04:25:29;;;;;;;5.13;2.40;;;11.10;73.20;;;;;;5086613;28;20600;-81
2023/09/24 04:27:57;;;;;;;10.30;2.73;;;11.10;73.20;;;;;;5108086;28;20514;-81
2023/09/24 04:30:27;;;;;;;5.93;2.70;;;11.10;73.20;;;;;;5103659;28;20942;-82
2023/09/24 04:32:57;;;;;;;6.00;2.57;;;11.10;73.10;;;;;;5110780;28;20546;-81
2023/09/24 04:35:27;;;;;;;6.27;3.03;;;11.00;73.10;;;;;;5112396;28;20535;-81
2023/09/24 04:37:56;;;;;;;6.60;2.90;;;11.00;73.10;;;;;;5106050;27;20517;-81
2023/09/24 04:40:25;;;;;;;5.60;3.07;;;11.00;73.10;;;;;;5111949;28;20459;-81
2023/09/24 04:42:53;;;;;;;7.20;2.73;;;11.00;73.10;;;;;;5089701;28;20464;-81
2023/09/24 04:45:22;;;;;;;4.50;2.37;;;11.00;73.20;;;;;;5106287;28;20482;-81
2023/09/24 04:47:51;;;;;;;7.23;2.80;;;11.00;73.10;;;;;;5105236;28;20450;-81
2023/09/24 04:50:26;;;;;;;5.07;2.30;;;11.00;73.10;;;;;;5093544;28;20555;-81
2023/09/24 04:52:55;;;;;;;6.83;2.77;;;11.00;73.20;;;;;;5110855;28;20460;-81
2023/09/24 04:55:24;;;;;;;5.93;2.30;;;11.10;73.20;;;;;;5105730;28;20454;-82
2023/09/24 04:57:53;;;;;;;5.70;2.80;;;11.10;73.20;;;;;;5092600;28;21042;-81
2023/09/24 05:00:32;;;;;;;4.83;2.33;;;11.10;73.20;;;;;;5091977;28;20540;-82
2023/09/24 05:03:01;;;;;;;6.37;2.50;;;11.10;73.30;;;;;;5089228;28;20460;-82
2023/09/24 05:05:29;;;;;;;5.20;2.20;;;11.10;73.20;;;;;;5092081;28;20456;-81
2023/09/24 05:07:58;;;;;;;5.00;2.27;;;11.10;73.20;;;;;;5107053;28;20726;-81
2023/09/24 05:10:25;;;;;;;6.00;2.70;;;11.00;73.10;;;;;;5105052;28;20449;-81
2023/09/24 05:12:53;;;;;;;5.10;2.27;;;11.00;73.20;;;;;;5089701;28;20475;-81
2023/09/24 05:15:21;;;;;;;5.07;2.33;;;11.00;73.20;;;;;;5105314;28;20435;-81
2023/09/24 05:17:50;;;;;;;5.13;2.17;;;11.00;73.20;;;;;;5107353;28;20475;-82
2023/09/24 05:20:19;;;;;;;5.53;2.23;;;10.90;73.00;;;;;;5110615;28;20556;-81
2023/09/24 05:22:47;;;;;;;5.57;2.20;;;10.90;73.10;;;;;;5109310;28;20981;-81
2023/09/24 05:25:15;;;;;;;5.10;2.30;;;10.80;73.10;;;;;;5097944;28;20450;-81
2023/09/24 05:27:43;;;;;;;4.33;2.00;;;10.80;73.10;;;;;;5091772;28;20456;-81
2023/09/24 05:30:11;;;;;;;5.30;2.37;;;10.70;73.10;;;;;;5087214;28;20465;-81
2023/09/24 05:32:39;;;;;;;7.80;2.30;;;10.70;73.20;;;;;;5088822;28;20460;-81
2023/09/24 05:35:08;;;;;;;7.40;2.77;;;10.70;73.20;;;;;;5106677;28;20969;-81
2023/09/24 05:37:39;;;;;;;7.47;2.70;;;10.70;73.30;;;;;;5107611;28;20448;-82
2023/09/24 05:40:09;;;;;;;6.57;2.80;;;10.70;73.30;;;;;;5091983;28;20825;-81
2023/09/24 05:42:41;;;;;;;5.97;2.77;;;10.70;73.40;;;;;;5093432;28;20829;-81
2023/09/24 05:45:09;;;;;;;8.73;3.23;;;10.80;73.40;;;;;;5113448;28;20943;-81
2023/09/24 05:47:38;;;;;;;7.20;2.90;;;10.80;73.50;;;;;;5107561;28;20472;-82
2023/09/24 05:50:07;;;;;;;4.83;1.97;;;10.80;73.50;;;;;;5105003;28;20548;-81
2023/09/24 05:52:35;;;;;;;6.07;2.53;;;10.80;73.50;;;;;;5108947;28;20505;-81
2023/09/24 05:55:04;;;;;;;5.03;1.93;;;10.80;73.50;;;;;;5109011;28;20538;-81
2023/09/24 05:57:32;;;;;;;5.50;2.60;;;10.80;73.50;;;;;;5110525;28;20941;-81
2023/09/24 06:00:03;;;;;;;7.57;2.87;;;10.80;73.60;;;;;;5106801;28;21142;-82
2023/09/24 06:02:39;;;;;;;5.03;2.37;;;10.80;73.60;;;;;;5083200;28;20525;-81
2023/09/24 06:05:09;;;;;;;6.73;2.73;;;10.80;73.60;;;;;;5083530;28;20462;-81
2023/09/24 06:07:38;;;;;;;5.00;2.80;;;10.90;73.70;;;;;;5073060;28;20466;-81
2023/09/24 06:10:09;;;;;;;7.00;3.37;;;10.90;73.90;;;;;;5087826;28;20526;-81
2023/09/24 06:12:38;;;;;;;8.57;3.00;;;10.90;74.00;;;;;;5100084;28;20551;-81
2023/09/24 06:15:07;;;;;;;6.17;2.80;;;10.90;74.10;;;;;;5087152;28;20968;-81
2023/09/24 06:17:35;;;;;;;5.60;3.00;;;11.00;74.20;;;;;;5084759;28;20458;-81
2023/09/24 06:20:05;;;;;;;8.50;3.80;;;11.00;74.40;;;;;;5090281;28;20896;-81
2023/09/24 06:22:33;;;;;;;6.30;2.90;;;11.10;74.50;;;;;;5090318;28;20553;-81
2023/09/24 06:25:01;;;;;;;7.03;2.73;;;11.10;74.60;;;;;;5090004;28;20456;-81
2023/09/24 06:27:30;;;;;;;6.67;2.93;;;11.20;74.80;;;;;;5082290;28;20507;-81
2023/09/24 06:29:58;;;;;;;11.33;2.87;;;11.20;74.90;;;;;;5088849;28;20448;-80
2023/09/24 06:32:29;;;;;;;10.73;3.50;;;11.30;74.90;;;;;;5091045;28;21035;-81
2023/09/24 06:34:57;;;;;;;8.40;3.00;;;11.30;74.90;;;;;;5071582;28;20505;-81
2023/09/24 06:37:32;;;;;;;6.50;2.90;;;11.30;75.00;;;;;;5088479;28;20461;-81
2023/09/24 06:40:00;;;;;;;5.73;3.00;;;11.30;75.30;;;;;;5071002;28;20454;-81
2023/09/24 06:42:32;;;;;;;15.20;3.70;;;11.40;75.30;;;;;;5090221;28;21025;-81
2023/09/24 06:45:00;;;;;;;8.17;4.73;;;11.40;75.40;;;;;;5089565;28;20461;-82
2023/09/24 06:47:28;;;;;;;10.03;5.13;;;11.40;75.40;;;;;;5088939;28;20862;-82
2023/09/24 06:49:56;;;;;;;9.37;4.80;;;11.50;75.60;;;;;;5093661;28;20511;-81
2023/09/24 06:52:24;;;;;;;7.70;4.60;;;11.50;75.70;;;;;;5091517;28;20984;-81
2023/09/24 06:54:52;;;;;;;9.07;5.13;;;11.50;75.70;;;;;;5090550;28;20450;-82
2023/09/24 06:57:20;;;;;;;8.17;5.10;;;11.50;75.80;;;;;;5093638;28;20468;-82
2023/09/24 06:59:50;;;;;;;7.87;4.60;;;11.60;75.90;;;;;;5074027;28;20460;-81
2023/09/24 07:02:19;;;;;;;7.60;4.30;;;11.60;76.00;;;;;;5069787;28;20468;-81
2023/09/24 07:04:48;;;;;;;7.07;4.43;;;11.60;76.10;;;;;;5072681;28;20458;-81
2023/09/24 07:07:18;;;;;;;7.57;4.03;;;11.60;76.20;;;;;;5081317;28;20491;-81
2023/09/24 07:09:47;;;;;;;6.77;4.00;;;11.70;76.30;;;;;;5090338;28;20530;-82
2023/09/24 07:12:16;;;;;;;7.63;4.07;;;11.70;76.40;;;;;;5089816;28;20825;-82
2023/09/24 07:14:44;;;;;;;7.27;4.33;;;11.70;76.50;;;;;;5086935;28;20900;-82
2023/09/24 07:17:15;;;;;;;6.37;3.43;;;11.80;76.60;;;;;;5090568;28;20543;-83
2023/09/24 07:19:43;;;;;;;6.97;3.87;;;11.90;76.70;;;;;;5069413;28;20517;-79
2023/09/24 07:22:11;;;;;;;5.47;3.60;;;11.90;76.70;;;;;;5089134;28;20488;-78
2023/09/24 07:24:39;;;;;;;7.60;4.33;;;12.00;76.80;;;;;;5090214;28;20509;-79
2023/09/24 07:27:07;;;;;;;6.03;3.47;;;12.00;76.90;;;;;;5087871;28;20590;-79
2023/09/24 07:29:35;;;;;;;6.00;3.57;;;12.00;76.90;;;;;;5091409;28;20464;-78
2023/09/24 07:32:03;;;;;;;5.03;2.90;;;12.10;77.10;;;;;;5107596;28;20479;-79
2023/09/24 07:34:33;;;;;;;5.43;3.43;;;12.10;77.20;;;;;;5114411;28;20456;-79
2023/09/24 07:37:03;;;;;;;5.80;3.33;;;12.20;77.30;;;;;;5109276;28;20452;-78
2023/09/24 07:39:41;;;;;;;6.23;3.60;;;12.30;77.40;;;;;;5110136;28;20439;-78
2023/09/24 07:42:10;;;;;;;6.47;3.40;;;12.30;77.50;;;;;;5110878;28;20451;-79
2023/09/24 07:44:38;;;;;;;6.00;3.67;;;12.30;77.70;;;;;;5108183;28;20542;-78
2023/09/24 07:47:06;;;;;;;6.53;3.90;;;12.40;77.70;;;;;;5103345;28;20475;-79
2023/09/24 07:49:35;;;;;;;5.33;3.17;;;12.40;77.80;;;;;;5109568;28;20452;-79
2023/09/24 07:52:03;;;;;;;6.23;3.43;;;12.50;77.90;;;;;;5107847;28;20454;-77
2023/09/24 07:54:31;;;;;;;6.23;2.90;;;12.50;78.00;;;;;;5113430;28;20527;-81
2023/09/24 07:57:00;;;;;;;5.00;2.80;;;12.50;78.10;;;;;;5105844;28;20451;-79
2023/09/24 07:59:29;;;;;;;5.57;2.93;;;12.60;78.20;;;;;;5109690;28;21036;-78
2023/09/24 08:01:58;;;;;;;5.17;2.97;;;12.70;78.30;;;;;;5110115;28;20523;-79
2023/09/24 08:04:26;;;;;;;5.37;3.20;;;12.70;78.40;;;;;;5107603;28;21224;-78
2023/09/24 08:06:55;;;;;;;5.40;3.30;;;12.80;78.50;;;;;;5107930;28;20538;-79
2023/09/24 08:09:23;;;;;;;5.53;3.13;;;12.80;78.60;;;;;;5105205;28;20531;-78
2023/09/24 08:11:54;;;;;;;8.77;4.07;;;12.80;78.70;;;;;;5092891;28;20446;-79
2023/09/24 08:14:22;;;;;;;5.37;2.53;;;12.90;78.80;;;;;;5111788;28;20456;-78
2023/09/24 08:16:51;;;;;;;6.37;2.93;;;12.90;78.90;;;;;;5112075;28;20942;-78
2023/09/24 08:19:19;;;;;;;5.80;3.10;;;13.00;79.00;;;;;;5088521;28;20453;-81
2023/09/24 08:21:47;;;;;;;5.30;3.40;;;13.10;79.00;;;;;;5112093;28;20482;-78
2023/09/24 08:24:16;;;;;;;6.37;3.90;;;13.10;79.10;;;;;;5105411;28;20462;-78
2023/09/24 08:26:44;;;;;;;6.83;4.00;;;13.20;79.20;;;;;;5101687;28;20948;-79
2023/09/24 08:29:12;;;;;;;5.53;3.47;;;13.20;79.30;;;;;;5108176;28;20487;-78
2023/09/24 08:31:40;;;;;;;9.50;3.57;;;13.30;79.40;;;;;;5106805;28;20479;-79
2023/09/24 08:34:08;;;;;;;7.87;3.60;;;13.30;79.50;;;;;;5106200;28;20456;-79
2023/09/24 08:36:37;;;;;;;5.87;3.10;;;13.40;79.50;;;;;;5112023;28;20444;-79
2023/09/24 08:39:06;;;;;;;6.60;3.80;;;13.40;79.70;;;;;;5105283;28;20540;-78
2023/09/24 08:41:43;;;;;;;6.30;3.50;;;13.50;79.80;;;;;;5091624;28;20511;-78
2023/09/24 08:44:16;;;;;;;7.13;3.73;;;13.50;79.90;;;;;;5109588;28;20476;-78
2023/09/24 08:46:45;;;;;;;7.83;3.70;;;13.50;80.00;;;;;;5104993;28;20477;-80
2023/09/24 08:49:14;;;;;;;7.10;3.60;;;13.60;80.00;;;;;;5104267;28;20551;-79
2023/09/24 08:51:45;;;;;;;7.60;3.80;;;13.60;80.10;;;;;;5106421;28;20499;-79
2023/09/24 08:54:14;;;;;;;9.13;3.53;;;13.70;80.20;;;;;;5109396;28;20446;-81
2023/09/24 08:56:44;;;;;;;6.23;3.27;;;13.70;80.20;;;;;;5092009;28;20464;-78
2023/09/24 08:59:12;;;;;;;6.07;3.43;;;13.80;80.20;;;;;;5086337;28;20449;-80
2023/09/24 09:01:40;;;;;;;6.63;3.27;;;13.80;80.20;;;;;;5102789;28;20582;-78
2023/09/24 09:04:08;;;;;;;6.10;3.70;;;13.90;80.20;;;;;;5089817;28;20502;-78
2023/09/24 09:06:37;;;;;;;9.77;3.27;;;13.90;80.30;;;;;;5106807;28;20460;-79
2023/09/24 09:09:06;;;;;;;6.77;3.10;;;14.00;80.30;;;;;;5104525;28;20469;-79
2023/09/24 09:11:39;;;;;;;6.57;4.00;;;14.00;80.30;;;;;;5087318;28;20466;-79
2023/09/24 09:14:10;;;;;;;7.20;4.23;;;14.10;80.40;;;;;;5107552;28;20515;-78
2023/09/24 09:16:57;;;;;;;8.77;4.37;;;14.10;80.50;;;;;;5092536;28;20460;-79
2023/09/24 09:19:27;;;;;;;6.87;3.60;;;14.20;80.60;;;;;;5108404;28;20533;-79
2023/09/24 09:21:55;;;;;;;7.60;3.90;;;14.20;80.60;;;;;;5105674;28;20550;-79
2023/09/24 09:24:25;;;;;;;7.50;3.77;;;14.30;80.60;;;;;;5107175;28;20458;-79
2023/09/24 09:26:56;;;;;;;6.93;4.10;;;14.40;80.60;;;;;;5091381;28;20456;-79
2023/09/24 09:29:28;;;;;;;7.80;3.60;;;14.40;80.70;;;;;;5087751;28;20474;-79
2023/09/24 09:31:56;;;;;;;7.33;3.83;;;14.40;80.60;;;;;;5105701;28;20898;-80
2023/09/24 09:34:28;;;;;;;6.83;3.67;;;14.50;80.70;;;;;;5106996;28;20459;-79
2023/09/24 09:37:16;;;;;;;7.60;3.40;;;14.50;80.80;;;;;;5106150;28;20458;-79
2023/09/24 09:39:45;;;;;;;13.63;4.27;;;14.60;80.90;;;;;;5107950;28;21018;-79
2023/09/24 09:42:22;;;;;;;6.80;4.10;;;14.70;80.80;;;;;;5100463;28;20813;-79
2023/09/24 09:44:52;;;;;;;11.40;4.27;;;14.70;80.80;;;;;;5105061;28;20945;-79
2023/09/24 09:47:22;;;;;;;10.20;4.60;;;14.80;81.00;;;;;;5089920;28;20796;-79
2023/09/24 09:49:58;;;;;;;7.27;4.20;;;14.80;81.10;;;;;;5107067;28;20571;-80
2023/09/24 09:52:33;;;;;;;9.53;4.47;;;14.90;81.00;;;;;;5106279;28;21176;-78
2023/09/24 09:55:04;;;;;;;7.90;4.07;;;15.00;80.90;;;;;;5106310;28;20545;-80
2023/09/24 09:57:34;;;;;;;10.13;4.60;;;15.00;80.90;;;;;;5107307;28;20447;-80
2023/09/24 10:00:06;;;;;;;10.20;3.93;;;15.10;80.90;;;;;;5104119;28;20465;-78
2023/09/24 10:02:41;;;;;;;8.90;4.20;;;15.10;80.70;;;;;;5103716;28;20569;-80
2023/09/24 10:05:12;;;;;;;9.60;4.97;;;15.20;80.70;;;;;;5104965;28;20515;-78
2023/09/24 10:07:41;;;;;;;11.70;5.50;;;15.20;80.70;;;;;;5089061;28;20451;-78
2023/09/24 10:10:45;;;;;;;7.90;4.73;;;15.30;80.80;;;;;;5088414;28;20467;-79
2023/09/24 10:13:50;;;;;;;8.23;4.77;;;15.30;80.80;;;;;;5088596;28;20998;-81
2023/09/24 10:16:35;;;;;;;9.67;4.97;;;15.40;80.80;;;;;;5103844;28;20446;-80
2023/09/24 10:19:13;;;;;;;7.03;3.97;;;15.50;80.90;;;;;;5100425;28;20441;-79
2023/09/24 10:21:43;;;;;;;9.40;4.60;;;15.50;81.00;;;;;;5106347;28;20486;-79
2023/09/24 10:24:48;;;;;;;7.57;3.50;;;15.60;80.90;;;;;;5103990;28;20447;-79
2023/09/24 10:27:21;;;;;;;7.57;4.00;;;15.70;80.60;;;;;;5088738;28;20471;-79
2023/09/24 10:30:08;;;;;;;10.23;4.20;;;15.70;80.50;;;;;;5108121;28;20475;-81
2023/09/24 10:32:59;;;;;;;6.47;3.00;;;15.80;80.30;;;;;;5101738;28;20807;-80
2023/09/24 10:35:27;;;;;;;9.43;4.00;;;15.90;80.30;;;;;;5103749;28;20949;-79
2023/09/24 10:38:02;;;;;;;9.97;4.53;;;15.90;80.20;;;;;;5105001;28;20943;-79
2023/09/24 10:40:33;;;;;;;8.50;3.60;;;16.00;79.90;;;;;;5103649;28;20459;-80
2023/09/24 10:43:18;;;;;;;7.63;3.50;;;16.10;79.70;;;;;;5106722;28;20451;-78
2023/09/24 10:45:48;;;;;;;6.87;3.30;;;16.10;79.30;;;;;;5103144;28;20463;-81
2023/09/24 10:48:19;;;;;;;7.93;2.73;;;16.10;79.10;;;;;;5104503;28;20455;-81
2023/09/24 10:50:59;;;;;;;6.97;2.20;;;16.20;78.80;;;;;;5102217;28;20890;-78
2023/09/24 10:53:28;;;;;;;5.97;2.17;;;16.20;78.60;;;;;;5104317;28;20460;-80
2023/09/24 10:55:56;;;;;;;6.40;2.27;;;16.20;78.40;;;;;;5086486;28;20445;-79
2023/09/24 10:58:38;;;;;;;8.20;1.97;;;16.30;78.10;;;;;;5086009;28;20456;-80
2023/09/24 11:01:06;;;;;;;7.20;3.43;;;16.30;77.70;;;;;;5102451;28;20493;-78
2023/09/24 11:03:36;;;;;;;5.60;2.40;;;16.40;77.40;;;;;;5107760;28;20946;-80
2023/09/24 11:06:07;;;;;;;8.30;2.60;;;16.40;77.20;;;;;;5103736;28;20485;-79
2023/09/24 11:08:35;;;;;;;5.57;1.50;;;16.40;76.90;;;;;;5103329;28;20942;-79
2023/09/24 11:11:03;;;;;;;5.10;2.00;;;16.40;76.70;;;;;;5100355;28;20939;-80
2023/09/24 11:13:31;;;;;;;8.23;2.23;;;16.50;76.40;;;;;;5100665;28;20449;-80
2023/09/24 11:16:00;;;;;;;6.80;2.63;;;16.60;76.10;;;;;;5089889;28;20464;-79
2023/09/24 11:18:28;;;;;;;6.10;2.03;;;16.70;75.90;;;;;;5104903;28;20452;-79
2023/09/24 11:20:58;;;;;;;5.57;2.20;;;16.80;75.50;;;;;;5106058;28;20543;-79
2023/09/24 11:23:26;;;;;;;4.80;1.50;;;16.90;75.30;;;;;;5104091;28;20460;-79
2023/09/24 11:25:55;;;;;;;5.00;1.50;;;16.90;74.90;;;;;;5101650;28;20452;-80
2023/09/24 11:28:31;;;;;;;8.40;1.70;;;16.90;74.50;;;;;;5079188;28;20463;-79
2023/09/24 11:30:59;;;;;;;6.47;1.90;;;17.00;74.10;;;;;;5104981;28;20471;-78
2023/09/24 11:33:27;;;;;;;8.40;1.77;;;17.00;74.10;;;;;;5110241;28;20853;-79
2023/09/24 11:35:57;;;;;;;7.73;2.13;;;17.00;74.10;;;;;;5105262;28;20505;-80
2023/09/24 11:38:31;;;;;;;6.00;1.77;;;17.10;73.90;;;;;;5107667;28;20516;-78
2023/09/24 11:41:07;;;;;;;5.37;1.83;;;17.20;73.50;;;;;;5106673;28;20795;-78
2023/09/24 11:43:36;;;;;;;4.47;1.37;;;17.20;73.10;;;;;;5110620;28;20497;-79
2023/09/24 11:46:16;;;;;;;4.97;1.50;;;17.20;72.80;;;;;;5109131;28;20456;-79
2023/09/24 11:48:45;;;;;;;4.37;1.47;;;17.30;72.60;;;;;;5090600;28;20479;-80
2023/09/24 11:51:15;;;;;;;6.90;2.37;;;17.30;72.40;;;;;;5090109;28;20440;-79
2023/09/24 11:53:43;;;;;;;4.80;1.50;;;17.30;71.90;;;;;;5108714;28;20456;-79
2023/09/24 11:56:18;;;;;;;4.90;1.33;;;17.30;71.70;;;;;;5108672;28;20546;-80
2023/09/24 11:58:46;;;;;;;10.53;1.90;;;17.30;71.30;;;;;;5111734;28;20447;-80
2023/09/24 12:01:15;;;;;;;5.97;1.70;;;17.40;71.40;;;;;;5113574;28;20506;-78
2023/09/24 12:03:44;;;;;;;6.43;1.87;;;17.40;71.10;;;;;;5111436;28;21009;-78
2023/09/24 12:06:13;;;;;;;5.70;1.43;;;17.50;70.80;;;;;;5112237;28;20443;-78
2023/09/24 12:08:43;;;;;;;8.27;1.67;;;17.50;70.40;;;;;;5107612;28;20463;-80
2023/09/24 12:11:19;;;;;;;6.10;1.60;;;17.50;70.10;;;;;;5109892;28;20487;-79
2023/09/24 12:13:47;;;;;;;5.07;1.80;;;17.60;69.70;;;;;;5090485;28;20455;-80
2023/09/24 12:16:15;;;;;;;4.10;1.20;;;17.60;69.60;;;;;;5092070;28;20471;-79
2023/09/24 12:18:43;;;;;;;4.23;1.43;;;17.60;69.50;;;;;;5110514;28;21135;-79
2023/09/24 12:21:11;;;;;;;5.20;1.77;;;17.70;69.50;;;;;;5109725;28;20447;-79
2023/09/24 12:23:39;;;;;;;5.13;1.43;;;17.70;69.40;;;;;;5106568;28;20909;-79
2023/09/24 12:26:08;;;;;;;5.37;1.50;;;17.80;69.20;;;;;;5109709;28;20479;-80
2023/09/24 12:28:36;;;;;;;4.13;1.27;;;17.80;69.00;;;;;;5108466;28;20460;-78
2023/09/24 12:31:04;;;;;;;4.53;1.47;;;17.70;69.10;;;;;;5108670;28;21015;-79
2023/09/24 12:33:32;;;;;;;4.00;1.40;;;17.80;69.00;;;;;;5106970;28;20978;-79
2023/09/24 12:36:01;;;;;;;4.97;1.60;;;17.80;68.90;;;;;;5085639;28;20486;-79
2023/09/24 12:38:29;;;;;;;4.60;1.60;;;17.80;68.80;;;;;;5108459;28;20436;-79
2023/09/24 12:40:57;;;;;;;6.50;2.10;;;17.80;68.60;;;;;;5105049;28;20447;-79
2023/09/24 12:43:27;;;;;;;5.40;1.73;;;17.90;68.60;;;;;;5107224;28;20817;-80
2023/09/24 12:45:55;;;;;;;7.50;1.77;;;17.90;68.40;;;;;;5109545;28;20504;-80
2023/09/24 12:48:24;;;;;;;6.73;1.70;;;18.00;68.40;;;;;;5106415;28;20464;-77
2023/09/24 12:50:53;;;;;;;5.23;1.40;;;18.00;68.30;;;;;;5109327;28;20479;-80
2023/09/24 12:53:20;;;;;;;6.20;1.87;;;18.00;68.20;;;;;;5103237;28;20448;-79
2023/09/24 12:55:48;;;;;;;8.93;2.20;;;18.10;68.20;;;;;;5085913;28;20564;-79
2023/09/24 12:58:16;;;;;;;6.10;1.60;;;18.10;68.20;;;;;;5090118;28;20968;-78
2023/09/24 13:00:45;;;;;;;5.13;1.67;;;18.10;68.00;;;;;;5102835;28;20804;-78